TFFF Airport Information

Runway Information
Runway 10 Length 10826 ft width 147 ft
Elevation 10 ft Threshold 0 ft Heading 80
Runway 28 Length 10826 ft Width 147 ft
Elevation 14 ft Threshold 984 ft Heading 260
Airport Frequencies
Type APP Name FORT DE FR Frequency 121 MHZ
Type ATIS Name ATIS Frequency 127.85 MHZ
Type GND Name GND Frequency 121.9 MHZ
Type TWR Name FORT DE FR Frequency 118.5 MHZ
Airport Navaids
Type VOR-DME Name Fort De France Frequency 113300 KHZ
Type NDB Name Fort De France Frequency 329 KHZ
Airport Weather Information & NOTAM
ADDS - METARS form results

(2322 UTC 30 March 2020)
Data provider http://aviationweather.gov/metar/data/
 
METAR text: TFFF 302300Z AUTO 08007KT 9999 FEW029 25/20 Q1013 TEMPO 07015G25KT
Conditions at: TFFF (LE LAMENTIN/MART, MQ) observed 2300 UTC 30 March 2020
Temperature: 25.0°C (77°F)
Dewpoint: 20.0°C (68°F) [RH = 74%]
Pressure (altimeter): 29.91 inches Hg (1013.0 mb)
Winds: from the E (80 degrees) at 8 MPH (7 knots; 3.6 m/s)
Visibility: 6 or more miles (10+ km)
Ceiling: at least 12,000 feet AGL
Clouds: few clouds at 2900 feet AGL
Weather: no significant weather observed at this time

METAR text: TFFF 302230Z AUTO 08008KT 9999 FEW029 26/20 Q1013 TEMPO 07015G25KT
Conditions at: TFFF (LE LAMENTIN/MART, MQ) observed 2230 UTC 30 March 2020
Temperature: 26.0°C (79°F)
Dewpoint: 20.0°C (68°F) [RH = 70%]
Pressure (altimeter): 29.91 inches Hg (1013.0 mb)
Winds: from the E (80 degrees) at 9 MPH (8 knots; 4.1 m/s)
Visibility: 6 or more miles (10+ km)
Ceiling: at least 12,000 feet AGL
Clouds: few clouds at 2900 feet AGL
Weather: no significant weather observed at this time

Forecast for: TFFF (LE LAMENTIN/MART, MQ)
Text: TAF TFFF 302300Z 3100/3124 09013KT 9999 SCT030
Forecast period: 0000 UTC 31 March 2020 to 0000 UTC 01 April 2020
Forecast type: FROM: standard forecast or significant change
Winds: from the E (90 degrees) at 15 MPH (13 knots; 6.7 m/s)
Visibility: 6 or more miles 10+ km)
Ceiling: at least 12,000 feet AGL
Clouds: scattered clouds at 3000 feet AGL
Weather: no significant weather forecast for this period
Text: PROB40 3104/3112 VRB03KT
Forecast period: 0400 to 1200 UTC 31 March 2020
Forecast type: PROBABLE: 40 percent likelihood of the following during this time
Winds: variable direction winds at 3 MPH (3 knots; 1.5 m/s)
Visibility: missing
Ceiling: unknown
Clouds: missing
Weather: no significant weather forecast for this period
Text: PROB30
Forecast period: 0600 to 1400 UTC 31 March 2020
Forecast type: TEMPORARY: The following changes expected for less than half the time period
Visibility: 2.49 miles (4.01 km)
Ceiling: at least 12,000 feet AGL
Clouds: scattered clouds at 1800 feet AGL
Weather: -SHRA  (light rain showers)